Flight Track Log - Related Links

Times and Time Zones

All times are in EDT time to prevent confusion due to time zone crossing. See the VH-YNA flight status page for this flight to view local times or setup timezone preferences in your user account.

Time Position Orientation Groundspeed Altitude Reporting Facility
EDT Latitude Longitude Course Direction KTS MPH feet Rate Location/Type
Fri 09:23:22 PM -31.9440 115.7570 North 103 119 1,500  Level Aus ATC (RADAR)
Fri 09:23:52 PM -31.9291 115.7571 North 107 123 1,400 -86 Descending Aus ATC (RADAR)
Fri 09:24:32 PM -31.9093 115.7565 359° North 106 122 1,400  Level Aus ATC (RADAR)
Fri 09:25:42 PM -31.8765 115.7546 357° North 100 115 1,400 47 Level Aus ATC (RADAR)
Fri 09:26:41 PM -31.8754 115.7431 276° West 103 119 1,500 61 Climbing Aus ATC (RADAR)
Fri 09:27:21 PM -31.8958 115.7483 168° South 112 129 1,500  Level Aus ATC (RADAR)
Fri 09:27:56 PM -31.9137 115.7502 175° South 113 130 1,500  Level Aus ATC (RADAR)
Fri 09:28:31 PM -31.9316 115.7512 177° South 113 130 1,500  Level Aus ATC (RADAR)
Fri 09:29:06 PM -31.9493 115.7512 180° South 110 127 1,500  Level Aus ATC (RADAR)
Fri 09:29:41 PM -31.9672 115.7494 185° South 110 127 1,500  Level Aus ATC (RADAR)
Fri 09:30:41 PM -31.9983 115.7483 182° South 110 127 1,500 104 Level Aus ATC (RADAR)
Fri 09:31:36 PM -32.0282 115.7485 180° South 118 136 1,700  Climbing Aus ATC (RADAR)
Fri 09:32:21 PM -32.0177 115.7602 43° Northeast 111 128 1,500 -150 Descending Aus ATC (RADAR)
Fri 09:32:56 PM -32.0015 115.7583 354° North 101 116 1,500 -76 Level Aus ATC (RADAR)
Fri 09:33:40 PM -31.9796 115.7571 357° North 102 117 1,400  Descending Aus ATC (RADAR)
Fri 09:34:41 PM -31.9522 115.7582 North 97 112 1,500 48 Climbing Aus ATC (RADAR)
Fri 09:35:46 PM -31.9215 115.7593 North 101 116 1,500  Level Aus ATC (RADAR)
Fri 09:36:45 PM -31.9119 115.7770 58° Northeast 109 125 1,500  Level Aus ATC (RADAR)
Fri 09:37:30 PM -31.9322 115.7923 147° Southeast 115 132 1,500  Level Aus ATC (RADAR)
Fri 09:38:05 PM -31.9478 115.8048 146° Southeast 114 131 1,500  Level Aus ATC (RADAR)
Fri 09:38:40 PM -31.9630 115.8176 144° Southeast 113 130 1,500  Level Aus ATC (RADAR)
Fri 09:39:10 PM -31.9757 115.8284 144° Southeast 112 129 1,500  Level Aus ATC (RADAR)
Fri 09:39:45 PM -31.9905 115.8413 144° Southeast 112 129 1,500  Level Aus ATC (RADAR)
Fri 09:40:40 PM -32.0114 115.8630 139° Southeast 109 125 1,500 -104 Level Aus ATC (RADAR)
Fri 09:41:40 PM -32.0086 115.8991 85° East 111 128 1,300 -180 Descending Aus ATC (RADAR)
Fri 09:42:20 PM -32.0066 115.9251 85° East 116 133 1,200 -240 Descending Aus ATC (RADAR)
Fri 09:42:55 PM -32.0028 115.9475 78° East 116 133 1,000 -429 Descending Aus ATC (RADAR)
Fri 09:43:30 PM -31.9844 115.9523 13° North 112 129 700 -80 Descending Aus ATC (RADAR)
Fri 09:44:10 PM -31.9676 115.9445 338° Northwest 114 131 900 405 Climbing Aus ATC (RADAR)
Fri 09:44:44 PM -31.9616 115.9245 290° West 109 125 1,200 404 Climbing Aus ATC (RADAR)
Fri 09:45:54 PM -31.9470 115.8851 294° West 113 130 1,600 120 Climbing Aus ATC (RADAR)
Fri 09:46:24 PM -31.9399 115.8697 299° West 105 121 1,400 -185 Descending Aus ATC (RADAR)
Fri 09:46:59 PM -31.9327 115.8521 296° West 100 115 1,400  Level Aus ATC (RADAR)
Fri 09:47:34 PM -31.9261 115.8338 293° West 101 116 1,400 171 Level Aus ATC (RADAR)
Fri 09:48:09 PM -31.9197 115.8164 293° West 98 113 1,600 86 Climbing Aus ATC (RADAR)
Fri 09:48:44 PM -31.9128 115.7983 294° West 101 116 1,500 -86 Descending Aus ATC (RADAR)
Fri 09:49:19 PM -31.9051 115.7808 297° West 101 116 1,500  Level Aus ATC (RADAR)
Fri 09:49:54 PM -31.8956 115.7637 303° West 103 119 1,500 180 Level Aus ATC (RADAR)
Fri 09:50:59 PM -31.8949 115.7386 272° West 96 110 1,800 550 Climbing Aus ATC (RADAR)
Fri 09:51:54 PM -31.8739 115.7413 North 81 93 2,600 780 Climbing Aus ATC (RADAR)
Fri 09:52:39 PM -31.8573 115.7428 North 79 91 3,100 675 Climbing Aus ATC (RADAR)
Fri 09:53:14 PM -31.8444 115.7431 North 79 91 3,500 686 Climbing Aus ATC (RADAR)
Fri 09:53:49 PM -31.8314 115.7450 North 83 96 3,900 522 Climbing Aus ATC (RADAR)
Fri 09:54:23 PM -31.8297 115.7653 84° East 106 122 4,100 87 Climbing Aus ATC (RADAR)
Fri 09:54:58 PM -31.8374 115.7865 113° Southeast 114 131 4,000 400 Descending Aus ATC (RADAR)
Fri 09:55:53 PM -31.8487 115.8194 112° Southeast 112 129 4,700 635 Climbing Aus ATC (RADAR)
Fri 09:56:23 PM -31.8541 115.8369 110° East 110 127 4,900 300 Climbing Aus ATC (RADAR)
Fri 09:56:53 PM -31.8606 115.8547 113° Southeast 114 131 5,000 80 Climbing Aus ATC (RADAR)
Fri 09:57:38 PM -31.8699 115.8833 111° Southeast 121 139 5,000  Level Aus ATC (RADAR)
Fri 09:58:13 PM -31.8773 115.9069 110° East 125 144 5,000 86 Level Aus ATC (RADAR)
Fri 09:58:48 PM -31.8847 115.9301 111° Southeast 125 144 5,100  Climbing Aus ATC (RADAR)
Fri 09:59:18 PM -31.8909 115.9495 111° Southeast 124 143 5,000 -92 Descending Aus ATC (RADAR)
Fri 09:59:53 PM -31.8979 115.9723 110° East 124 143 5,000  Level Aus ATC (RADAR)
Fri 10:00:53 PM -31.9094 116.0119 109° East 124 143 5,000  Level Aus ATC (RADAR)
Fri 10:01:53 PM -31.9197 116.0515 107° East 122 140 5,000 -171 Level Aus ATC (RADAR)
Fri 10:02:38 PM -31.9292 116.0801 111° Southeast 127 146 4,700 -375 Descending Aus ATC (RADAR)
Fri 10:03:13 PM -31.9385 116.1043 114° Southeast 136 157 4,500 -467 Descending Aus ATC (RADAR)
Fri 10:04:08 PM -31.9536 116.1423 115° Southeast 138 159 4,000 -514 Descending Aus ATC (RADAR)
Fri 10:04:58 PM -31.9698 116.1746 121° Southeast 134 154 3,600 -581 Descending Aus ATC (RADAR)
Fri 10:06:12 PM -32.0154 116.1733 181° South 131 151 2,800 -558 Descending Aus ATC (RADAR)
Fri 10:07:07 PM -32.0472 116.1643 193° South 128 147 2,400 -240 Descending Aus ATC (RADAR)
Fri 10:07:52 PM -32.0723 116.1574 193° South 123 142 2,400 160 Level Aus ATC (RADAR)
Fri 10:08:22 PM -32.0893 116.1533 192° South 123 142 2,600 80 Climbing Aus ATC (RADAR)
Fri 10:09:07 PM -32.1154 116.1459 194° South 129 148 2,500 -114 Descending Aus ATC (RADAR)
Fri 10:10:07 PM -32.1485 116.1327 199° South 124 143 2,400 -48 Descending Aus ATC (RADAR)
Fri 10:11:12 PM -32.1725 116.1011 228° Southwest 118 136 2,400  Level Aus ATC (RADAR)
Fri 10:12:12 PM -32.1891 116.0689 239° Southwest 112 129 2,400  Level Aus ATC (RADAR)
Fri 10:12:57 PM -32.1990 116.0434 245° Southwest 109 125 2,400 -320 Level Aus ATC (RADAR)
Fri 10:13:27 PM -32.2019 116.0262 259° West 103 119 2,000 -738 Descending Aus ATC (RADAR)
Fri 10:14:02 PM -32.2013 116.0062 272° West 98 113 1,600 -429 Descending Aus ATC (RADAR)
Fri 10:14:37 PM -32.1955 115.9871 290° West 101 116 1,500 -171 Descending Aus ATC (RADAR)
Fri 10:15:12 PM -32.1869 115.9711 302° West 95 109 1,400 67 Descending Aus ATC (RADAR)
Fri 10:16:07 PM -32.1689 115.9499 315° West 98 113 1,600 50 Climbing Aus ATC (RADAR)
Fri 10:17:12 PM -32.1448 115.9279 322° Northwest 102 117 1,500 -60 Descending Aus ATC (RADAR)
Fri 10:17:47 PM -32.1314 115.9158 323° Northwest 104 120 1,500  Level Aus ATC (RADAR)
Fri 10:18:21 PM -32.1186 115.9033 320° Northwest 103 119 1,500  Level Aus ATC (RADAR)
Fri 10:18:56 PM -32.1050 115.8906 322° Northwest 106 122 1,500  Level Aus ATC (RADAR)
Fri 10:19:26 PM -32.0937 115.8800 322° Northwest 103 119 1,500 -185 Level Aus ATC (RADAR)
Fri 10:20:01 PM -32.0841 115.8650 307° West 97 112 1,300 -382 Descending Aus ATC (RADAR)
Fri 10:21:16 PM -32.1039 115.8484 215° Southwest 84 97 800 -444 Descending Aus ATC (RADAR)
Fri 10:22:16 PM -32.1042 115.8672 91° East 65 75 300 -400 Descending Aus ATC (RADAR)
Fri 10:23:01 PM -32.0974 115.8784 54° Northeast 52 60 100 -150 Descending Aus ATC (RADAR)
Fri 10:23:36 PM -32.0955 115.8796 28° Northeast 14 16 100  Level Aus ATC (RADAR)

Login

Don't have an account? Register now (free) for customized features, flight alerts, and more!